Terminal Aerodrome Forecast
Issued by NWS

Home | Current Version | Previous Version | Text Only | Print | Product List | Glossary On
Versions: 1 2 3 4 5 6 7 8 9 10 11 12 13 14 15 16 17 18 19
000
FTUS46 KMFR 220012 AAA
TAFLMT
TAF AMD
KLMT 220012Z 2200/2224 17020G30KT 4SM -SHSN BR SCT015 BKN025 OVC035
     FM220100 17015G25KT 6SM -SHSN BR BKN025 OVC040
     FM220600 21007KT 6SM BR VCSH BKN015 OVC025
     FM221800 VRB03KT P6SM SCT025 BKN035=

USA.gov is the U.S. government's official web portal to all federal, state and local government web resources and services.